Time;durP1;ratioP1;P1;durP2;ratioP2;P2;SDS_P1;SDS_P2;PMS_P1;PMS_P2;Temp;Humidity;BMP_temperature;BMP_pressure;BME280_temperature;BME280_humidity;BME280_pressure;Samples;Min_cycle;Max_cycle;Signal;HPM_P1;HPM_P2
2023/01/04 00:01:54;;;;;;;17.33;9.00;;;;;;;;;;4975862;28;20618;-88
2023/01/04 00:04:59;;;;;;;26.77;10.37;;;;;;;;;;4976379;28;20546;-88
2023/01/04 00:08:03;;;;;;;20.37;8.60;;;;;;;;;;4986741;28;20543;-87
2023/01/04 00:11:13;;;;;;;18.07;9.33;;;;;;;;;;4988185;28;20641;-87
2023/01/04 00:14:18;;;;;;;12.97;9.43;;;;;;;;;;4968661;28;20551;-88
2023/01/04 00:17:22;;;;;;;12.50;9.10;;;;;;;;;;4991149;28;20597;-86
2023/01/04 00:20:26;;;;;;;11.80;9.37;;;;;;;;;;4961702;28;20629;-88
2023/01/04 00:23:30;;;;;;;12.60;8.47;;;;;;;;;;4996148;28;20539;-88
2023/01/04 00:26:35;;;;;;;14.20;7.77;;;;;;;;;;4973001;28;20601;-88
2023/01/04 00:29:39;;;;;;;12.73;7.97;;;;;;;;;;4985404;28;20609;-88
2023/01/04 00:32:44;;;;;;;11.27;8.80;;;;;;;;;;4961545;28;20602;-88
2023/01/04 00:35:48;;;;;;;13.23;9.30;;;;;;;;;;4983034;28;20546;-88
2023/01/04 00:39:11;;;;;;;12.70;8.17;;;;;;;;;;4973543;28;20535;-88
2023/01/04 00:42:15;;;;;;;18.67;9.13;;;;;;;;;;4970959;28;20547;-88
2023/01/04 00:45:19;;;;;;;12.67;8.70;;;;;;;;;;4981155;28;20543;-88
2023/01/04 00:48:24;;;;;;;17.60;9.07;;;;;;;;;;4971054;28;20871;-88
2023/01/04 00:51:29;;;;;;;14.47;8.17;;;;;;;;;;4981177;28;21203;-88
2023/01/04 00:54:33;;;;;;;11.00;8.57;;;;;;;;;;4958884;28;20539;-88
2023/01/04 00:57:38;;;;;;;19.60;9.17;;;;;;;;;;4979941;28;20555;-88
2023/01/04 01:00:42;;;;;;;16.70;8.63;;;;;;;;;;4966656;28;20625;-91
2023/01/04 01:03:46;;;;;;;10.77;8.03;;;;;;;;;;4977519;28;20598;-91
2023/01/04 01:06:51;;;;;;;10.90;8.33;;;;;;;;;;4988091;28;20546;-91
2023/01/04 01:09:55;;;;;;;13.30;8.93;;;;;;;;;;4965554;28;20551;-91
2023/01/04 01:12:59;;;;;;;17.90;9.50;;;;;;;;;;4976553;28;20598;-91
2023/01/04 01:16:10;;;;;;;22.53;9.20;;;;;;;;;;4976747;28;20543;-91
2023/01/04 01:19:14;;;;;;;21.03;9.30;;;;;;;;;;4954605;28;20543;-91
2023/01/04 01:22:18;;;;;;;15.10;9.67;;;;;;;;;;4965807;28;20547;-91
2023/01/04 01:25:23;;;;;;;25.30;9.00;;;;;;;;;;4977729;28;21077;-91
2023/01/04 01:28:28;;;;;;;21.53;8.43;;;;;;;;;;4977262;28;20539;-91
2023/01/04 01:31:32;;;;;;;17.83;8.77;;;;;;;;;;4986989;28;20630;-91
2023/01/04 01:34:36;;;;;;;13.40;9.40;;;;;;;;;;4976329;28;20934;-91
2023/01/04 01:37:40;;;;;;;33.03;10.67;;;;;;;;;;4953896;28;20543;-91
2023/01/04 01:40:44;;;;;;;16.37;9.83;;;;;;;;;;4953959;28;20621;-91
2023/01/04 01:43:49;;;;;;;14.07;9.70;;;;;;;;;;4975988;28;20602;-91
2023/01/04 01:46:53;;;;;;;11.60;7.90;;;;;;;;;;4964734;28;20602;-90
2023/01/04 01:49:59;;;;;;;11.83;8.27;;;;;;;;;;4986621;28;20606;-91
2023/01/04 01:53:07;;;;;;;12.40;8.43;;;;;;;;;;4976485;28;20594;-87
2023/01/04 01:56:14;;;;;;;37.13;8.70;;;;;;;;;;4975646;28;20601;-87
2023/01/04 01:59:19;;;;;;;12.13;8.77;;;;;;;;;;4975681;28;20590;-87
2023/01/04 02:02:23;;;;;;;21.13;8.90;;;;;;;;;;4975302;28;20610;-87
2023/01/04 02:05:32;;;;;;;15.73;8.30;;;;;;;;;;4964547;28;20546;-87
2023/01/04 02:08:40;;;;;;;13.87;9.03;;;;;;;;;;4953628;28;20551;-87
2023/01/04 02:11:44;;;;;;;14.50;9.60;;;;;;;;;;4975131;28;21204;-87
2023/01/04 02:14:50;;;;;;;33.00;12.10;;;;;;;;;;4953385;28;20733;-87
2023/01/04 02:18:12;;;;;;;34.97;11.83;;;;;;;;;;4964099;28;20546;-87
2023/01/04 02:21:24;;;;;;;27.03;12.53;;;;;;;;;;4975165;28;20618;-88
2023/01/04 02:24:43;;;;;;;36.30;13.30;;;;;;;;;;4964235;28;20590;-87
2023/01/04 02:28:08;;;;;;;31.23;13.30;;;;;;;;;;4952956;28;20543;-87
2023/01/04 02:31:22;;;;;;;23.47;11.50;;;;;;;;;;4974529;28;20626;-88
2023/01/04 02:34:41;;;;;;;32.47;12.77;;;;;;;;;;4953042;28;20603;-88
2023/01/04 02:37:53;;;;;;;17.67;11.27;;;;;;;;;;4952827;28;20551;-88
2023/01/04 02:41:36;;;;;;;33.23;12.47;;;;;;;;;;4974631;28;20634;-88
2023/01/04 02:44:52;;;;;;;40.13;11.77;;;;;;;;;;4964005;28;20183;-87
2023/01/04 02:51:29;;;;;;;45.73;12.23;;;;;;;;;;4963392;28;20713;-87
2023/01/04 02:54:35;;;;;;;31.63;11.80;;;;;;;;;;4963828;28;20211;-88
2023/01/04 02:57:57;;;;;;;47.70;12.37;;;;;;;;;;4963814;28;20204;-88
2023/01/04 03:08:29;;;;;;;39.63;12.20;;;;;;;;;;4978164;28;20191;-88
2023/01/04 03:12:31;;;;;;;20.20;11.53;;;;;;;;;;4978212;28;20218;-88
2023/01/04 03:15:38;;;;;;;25.67;12.43;;;;;;;;;;4966884;28;20202;-88
2023/01/04 03:18:49;;;;;;;18.57;11.27;;;;;;;;;;4977736;28;20630;-89
2023/01/04 03:21:53;;;;;;;21.30;12.23;;;;;;;;;;4967111;28;20214;-88
2023/01/04 03:35:23;;;;;;;21.17;11.97;;;;;;;;;;4966630;28;20187;-88
2023/01/04 03:49:44;;;;;;;31.57;12.07;;;;;;;;;;4977700;28;20183;-88
2023/01/04 03:52:50;;;;;;;20.33;11.17;;;;;;;;;;4974963;28;20180;-91
2023/01/04 03:55:57;;;;;;;20.43;11.47;;;;;;;;;;4977831;28;20179;-91
2023/01/04 03:59:01;;;;;;;21.33;11.77;;;;;;;;;;4978060;28;20504;-91
2023/01/04 04:02:09;;;;;;;20.63;12.07;;;;;;;;;;4988484;28;20222;-90
2023/01/04 04:08:39;;;;;;;29.13;11.03;;;;;;;;;;4966279;28;20524;-91
2023/01/04 04:11:43;;;;;;;70.33;11.13;;;;;;;;;;4965565;28;20234;-92
2023/01/04 04:14:47;;;;;;;19.67;10.43;;;;;;;;;;4966418;28;20639;-91
2023/01/04 04:17:51;;;;;;;16.33;9.77;;;;;;;;;;4967098;28;20198;-93
2023/01/04 04:20:56;;;;;;;22.07;10.40;;;;;;;;;;4966238;28;20219;-89
2023/01/04 04:24:00;;;;;;;18.53;10.13;;;;;;;;;;4977333;28;20194;-88
2023/01/04 04:27:04;;;;;;;15.27;9.60;;;;;;;;;;4965996;28;20179;-88
2023/01/04 04:30:09;;;;;;;14.23;9.67;;;;;;;;;;4965627;28;20218;-88
2023/01/04 04:33:13;;;;;;;19.73;9.60;;;;;;;;;;4965605;28;20207;-88
2023/01/04 04:36:17;;;;;;;24.50;9.67;;;;;;;;;;4976829;28;20202;-88
2023/01/04 04:39:21;;;;;;;15.37;9.90;;;;;;;;;;4977182;28;20178;-88
2023/01/04 04:42:26;;;;;;;69.40;10.80;;;;;;;;;;4976521;28;20622;-88
2023/01/04 04:45:30;;;;;;;56.33;11.13;;;;;;;;;;4965641;28;20174;-88
2023/01/04 04:48:35;;;;;;;34.70;10.63;;;;;;;;;;4965905;28;20207;-89
2023/01/04 04:51:40;;;;;;;41.57;10.83;;;;;;;;;;4965526;28;20563;-89
2023/01/04 04:54:44;;;;;;;51.03;10.30;;;;;;;;;;4965691;28;20210;-89
2023/01/04 04:57:48;;;;;;;20.37;8.77;;;;;;;;;;4975776;28;20203;-88
2023/01/04 05:00:53;;;;;;;57.13;9.47;;;;;;;;;;4987047;28;20222;-89
2023/01/04 05:03:57;;;;;;;26.77;9.37;;;;;;;;;;4965217;28;20174;-89
2023/01/04 05:07:01;;;;;;;12.77;9.07;;;;;;;;;;4975203;28;20203;-89
2023/01/04 05:10:05;;;;;;;13.57;9.63;;;;;;;;;;4975818;28;20206;-89
2023/01/04 05:13:12;;;;;;;16.40;9.13;;;;;;;;;;4992596;28;20183;-89
2023/01/04 05:16:16;;;;;;;13.47;9.33;;;;;;;;;;4976090;28;20175;-89
2023/01/04 05:19:20;;;;;;;13.70;9.30;;;;;;;;;;4965003;28;20183;-89
2023/01/04 05:22:24;;;;;;;15.13;9.90;;;;;;;;;;4976040;28;20638;-89
2023/01/04 05:25:28;;;;;;;14.93;10.10;;;;;;;;;;4975871;28;20199;-89
2023/01/04 05:28:32;;;;;;;13.83;9.27;;;;;;;;;;4965219;28;20203;-89
2023/01/04 05:31:36;;;;;;;14.93;9.47;;;;;;;;;;4976315;28;20559;-89
2023/01/04 05:34:41;;;;;;;15.10;9.93;;;;;;;;;;4987902;28;20210;-89
2023/01/04 05:37:45;;;;;;;13.83;9.27;;;;;;;;;;4987377;28;20183;-89
2023/01/04 05:40:49;;;;;;;14.67;9.80;;;;;;;;;;4976561;28;20218;-89
2023/01/04 05:43:53;;;;;;;16.43;10.30;;;;;;;;;;4976036;28;20179;-89
2023/01/04 05:46:57;;;;;;;15.87;9.80;;;;;;;;;;4964781;28;20175;-88
2023/01/04 05:50:02;;;;;;;15.83;9.77;;;;;;;;;;4975655;28;20639;-89
2023/01/04 05:53:07;;;;;;;15.13;10.33;;;;;;;;;;4953734;28;20187;-90
2023/01/04 05:56:10;;;;;;;15.77;9.90;;;;;;;;;;4975842;28;20179;-89
2023/01/04 05:59:15;;;;;;;17.23;10.40;;;;;;;;;;4963882;28;20194;-89
2023/01/04 06:02:24;;;;;;;17.30;9.50;;;;;;;;;;4964668;28;20183;-89
2023/01/04 06:05:29;;;;;;;14.10;9.47;;;;;;;;;;4953264;28;20194;-89
2023/01/04 06:08:33;;;;;;;15.70;10.17;;;;;;;;;;4963999;28;20187;-89
2023/01/04 06:11:37;;;;;;;16.70;10.17;;;;;;;;;;4975111;28;20230;-89
2023/01/04 06:14:41;;;;;;;15.00;9.90;;;;;;;;;;4953225;28;20650;-89
2023/01/04 06:17:45;;;;;;;16.87;9.83;;;;;;;;;;4963870;28;20182;-89
2023/01/04 06:20:50;;;;;;;16.70;10.13;;;;;;;;;;4986132;28;20222;-90
2023/01/04 06:23:54;;;;;;;13.07;8.93;;;;;;;;;;4963695;28;20187;-89
2023/01/04 06:26:59;;;;;;;13.30;8.67;;;;;;;;;;4974884;28;20179;-89
2023/01/04 06:30:03;;;;;;;12.57;8.37;;;;;;;;;;4985787;28;20183;-88
2023/01/04 06:33:07;;;;;;;15.07;9.17;;;;;;;;;;4975017;28;20182;-90
2023/01/04 06:36:11;;;;;;;15.67;9.87;;;;;;;;;;4952229;28;20179;-89
2023/01/04 06:39:16;;;;;;;13.47;8.23;;;;;;;;;;4962429;28;20658;-87
2023/01/04 06:45:42;;;;;;;13.23;8.47;;;;;;;;;;4963239;28;20171;-88
2023/01/04 06:48:46;;;;;;;13.87;8.80;;;;;;;;;;4985991;28;20191;-88
2023/01/04 06:51:50;;;;;;;17.80;9.93;;;;;;;;;;4963044;28;20690;-88
2023/01/04 06:54:55;;;;;;;18.57;9.97;;;;;;;;;;4974242;28;20222;-88
2023/01/04 06:57:59;;;;;;;17.67;9.67;;;;;;;;;;4963251;28;20182;-89
2023/01/04 07:01:03;;;;;;;15.03;9.10;;;;;;;;;;4952237;28;20214;-89
2023/01/04 07:04:07;;;;;;;15.50;9.50;;;;;;;;;;4963019;28;20198;-89
2023/01/04 07:07:11;;;;;;;16.07;10.03;;;;;;;;;;4974210;28;20198;-89
2023/01/04 07:10:15;;;;;;;22.17;15.83;;;;;;;;;;4973684;28;20230;-89
2023/01/04 07:13:19;;;;;;;16.00;10.37;;;;;;;;;;4963142;28;20190;-89
2023/01/04 07:16:23;;;;;;;16.67;10.40;;;;;;;;;;4963176;28;20171;-88
2023/01/04 07:19:28;;;;;;;20.20;11.47;;;;;;;;;;4962941;28;20179;-89
2023/01/04 07:22:31;;;;;;;13.93;9.60;;;;;;;;;;4963263;28;20183;-88
2023/01/04 07:25:36;;;;;;;15.67;9.23;;;;;;;;;;4974330;28;20179;-88
2023/01/04 07:32:03;;;;;;;12.47;8.30;;;;;;;;;;4977881;28;20227;-91
2023/01/04 07:35:07;;;;;;;11.43;8.10;;;;;;;;;;4966218;28;20218;-89
2023/01/04 07:38:11;;;;;;;14.43;8.70;;;;;;;;;;4989074;28;20179;-89
2023/01/04 07:41:15;;;;;;;14.03;8.90;;;;;;;;;;4977581;28;20222;-89
2023/01/04 07:44:25;;;;;;;12.90;7.93;;;;;;;;;;4977566;28;20203;-89
2023/01/04 07:47:29;;;;;;;12.77;8.07;;;;;;;;;;4966382;28;20198;-88
2023/01/04 07:50:33;;;;;;;13.87;7.83;;;;;;;;;;4955449;28;20690;-89
2023/01/04 07:53:37;;;;;;;14.83;8.70;;;;;;;;;;4973815;28;20186;-86
2023/01/04 07:56:47;;;;;;;13.60;8.27;;;;;;;;;;4986660;28;20183;-85
2023/01/04 07:59:51;;;;;;;10.70;7.33;;;;;;;;;;4975494;28;20179;-86
2023/01/04 08:02:55;;;;;;;14.27;8.40;;;;;;;;;;4986808;28;20179;-86
2023/01/04 08:06:11;;;;;;;12.90;8.17;;;;;;;;;;4985613;28;20175;-86
2023/01/04 08:09:19;;;;;;;12.60;7.93;;;;;;;;;;4974257;28;20187;-86
2023/01/04 08:12:24;;;;;;;13.43;9.37;;;;;;;;;;4985556;28;20646;-85
2023/01/04 08:15:28;;;;;;;13.10;10.00;;;;;;;;;;4997304;28;20222;-85
2023/01/04 08:18:32;;;;;;;13.10;9.73;;;;;;;;;;4985826;28;20187;-86
2023/01/04 08:21:37;;;;;;;13.90;10.97;;;;;;;;;;4984804;28;20194;-87
2023/01/04 08:24:41;;;;;;;13.13;9.03;;;;;;;;;;4978719;28;20171;-85
2023/01/04 08:27:45;;;;;;;11.93;8.83;;;;;;;;;;4977519;28;20638;-87
2023/01/04 08:30:49;;;;;;;12.40;9.20;;;;;;;;;;4977297;28;20214;-84
2023/01/04 08:33:54;;;;;;;10.73;8.17;;;;;;;;;;4977328;28;20183;-86
2023/01/04 08:36:58;;;;;;;11.90;7.93;;;;;;;;;;4965625;28;20183;-86
2023/01/04 08:40:03;;;;;;;9.73;6.90;;;;;;;;;;4965564;28;20179;-86
2023/01/04 08:43:07;;;;;;;9.57;7.07;;;;;;;;;;4965423;28;20195;-86
2023/01/04 08:46:12;;;;;;;8.67;6.53;;;;;;;;;;4965767;28;20199;-86
2023/01/04 08:49:17;;;;;;;8.60;6.73;;;;;;;;;;4978300;28;20183;-85
2023/01/04 08:52:21;;;;;;;9.80;7.00;;;;;;;;;;4966093;28;20187;-86
2023/01/04 08:55:26;;;;;;;9.27;6.83;;;;;;;;;;4956921;28;20211;-86
2023/01/04 08:58:31;;;;;;;11.47;7.23;;;;;;;;;;4956836;28;20178;-86
2023/01/04 09:01:35;;;;;;;9.23;6.67;;;;;;;;;;4979003;28;20698;-86
2023/01/04 09:04:40;;;;;;;9.40;6.53;;;;;;;;;;4967759;28;20183;-86
2023/01/04 09:07:45;;;;;;;10.03;7.27;;;;;;;;;;4981788;28;20198;-86
2023/01/04 09:10:49;;;;;;;23.00;13.73;;;;;;;;;;4985418;28;20230;-86
2023/01/04 09:13:56;;;;;;;10.97;8.03;;;;;;;;;;4973835;28;20186;-86
2023/01/04 09:17:00;;;;;;;9.27;6.70;;;;;;;;;;4974614;28;20191;-86
2023/01/04 09:20:05;;;;;;;9.20;6.80;;;;;;;;;;4985451;28;20186;-86
2023/01/04 09:23:09;;;;;;;9.10;6.50;;;;;;;;;;4973410;28;20183;-86
2023/01/04 09:26:16;;;;;;;46.20;33.43;;;;;;;;;;4972452;28;20179;-86
2023/01/04 09:29:20;;;;;;;81.30;51.43;;;;;;;;;;4971461;28;20187;-87
2023/01/04 09:32:25;;;;;;;26.27;19.77;;;;;;;;;;4971034;28;20182;-88
2023/01/04 09:35:29;;;;;;;13.47;12.07;;;;;;;;;;4980975;28;20215;-86
2023/01/04 09:38:34;;;;;;;11.57;6.60;;;;;;;;;;4959295;28;20515;-84
2023/01/04 09:41:46;;;;;;;7.53;5.67;;;;;;;;;;4969021;28;20215;-85
2023/01/04 09:45:00;;;;;;;7.07;5.50;;;;;;;;;;4983242;28;20542;-87
2023/01/04 09:48:33;;;;;;;6.33;5.07;;;;;;;;;;4990689;28;20183;-87
2023/01/04 09:51:42;;;;;;;5.97;4.37;;;;;;;;;;4972368;28;20222;-87
2023/01/04 09:54:51;;;;;;;7.83;4.63;;;;;;;;;;4976775;28;20183;-86
2023/01/04 09:58:01;;;;;;;5.20;4.37;;;;;;;;;;4975540;28;20183;-86
2023/01/04 10:01:20;;;;;;;6.80;5.07;;;;;;;;;;4975315;28;20727;-86
2023/01/04 10:04:39;;;;;;;5.57;4.60;;;;;;;;;;4974142;28;20183;-88
2023/01/04 10:07:44;;;;;;;5.37;4.43;;;;;;;;;;4965597;28;20179;-87
2023/01/04 10:11:32;;;;;;;5.63;3.97;;;;;;;;;;4981306;28;20215;-86
2023/01/04 10:14:51;;;;;;;4.43;3.77;;;;;;;;;;5014083;28;20206;-86
2023/01/04 10:18:08;;;;;;;5.30;4.17;;;;;;;;;;4985910;28;20183;-86
2023/01/04 10:21:37;;;;;;;7.33;5.37;;;;;;;;;;4986125;28;20199;-87
2023/01/04 10:24:48;;;;;;;6.80;6.00;;;;;;;;;;4986357;28;20215;-87
2023/01/04 10:28:05;;;;;;;12.40;8.33;;;;;;;;;;4986086;28;20163;-87
2023/01/04 10:31:23;;;;;;;28.30;18.73;;;;;;;;;;4986403;28;20203;-87
2023/01/04 10:34:32;;;;;;;12.77;10.53;;;;;;;;;;4986232;28;20175;-85
2023/01/04 10:37:37;;;;;;;7.57;6.40;;;;;;;;;;4998056;28;20171;-88
2023/01/04 10:40:44;;;;;;;5.00;3.27;;;;;;;;;;4997131;28;20226;-87
2023/01/04 10:44:12;;;;;;;3.73;3.23;;;;;;;;;;4997804;28;20191;-88
2023/01/04 10:47:43;;;;;;;3.93;3.00;;;;;;;;;;4986911;28;20183;-87
2023/01/04 10:50:58;;;;;;;4.20;3.00;;;;;;;;;;4976411;28;20203;-87
2023/01/04 10:54:17;;;;;;;3.60;2.80;;;;;;;;;;4987089;28;20171;-87
2023/01/04 10:57:30;;;;;;;4.30;2.93;;;;;;;;;;4997517;28;20195;-87
2023/01/04 11:00:46;;;;;;;3.80;2.60;;;;;;;;;;4986317;28;20215;-88
2023/01/04 11:04:17;;;;;;;4.17;2.53;;;;;;;;;;4974964;28;20183;-87
2023/01/04 11:07:38;;;;;;;3.17;2.40;;;;;;;;;;4999423;28;20159;-88
2023/01/04 11:11:08;;;;;;;3.20;2.53;;;;;;;;;;4989047;28;20218;-88
2023/01/04 11:14:14;;;;;;;4.30;2.50;;;;;;;;;;4998797;28;20179;-87
2023/01/04 11:17:20;;;;;;;3.17;2.33;;;;;;;;;;4987248;28;20223;-88
2023/01/04 11:20:25;;;;;;;3.87;2.30;;;;;;;;;;5000730;28;20227;-87
2023/01/04 11:23:29;;;;;;;3.33;1.90;;;;;;;;;;4989861;28;20205;-87
2023/01/04 11:26:38;;;;;;;1.80;1.63;;;;;;;;;;4978703;28;20175;-88
2023/01/04 11:30:10;;;;;;;3.23;2.13;;;;;;;;;;4974713;28;20547;-87
2023/01/04 11:33:18;;;;;;;3.73;2.13;;;;;;;;;;4986958;28;20182;-87
2023/01/04 11:36:38;;;;;;;2.17;1.87;;;;;;;;;;4966147;28;20214;-87
2023/01/04 11:39:43;;;;;;;3.17;1.90;;;;;;;;;;4989199;28;20163;-87
2023/01/04 11:42:52;;;;;;;3.57;1.90;;;;;;;;;;4968912;28;20179;-87
2023/01/04 11:45:59;;;;;;;2.40;1.70;;;;;;;;;;4991024;28;20187;-87
2023/01/04 11:49:04;;;;;;;4.77;1.70;;;;;;;;;;4968060;28;20183;-88
2023/01/04 11:52:32;;;;;;;1.67;1.37;;;;;;;;;;4977104;28;20210;-87
2023/01/04 11:55:36;;;;;;;1.43;1.20;;;;;;;;;;4969805;28;20179;-87
2023/01/04 11:58:43;;;;;;;1.77;1.30;;;;;;;;;;4968540;28;20195;-86
2023/01/04 12:01:50;;;;;;;2.53;1.30;;;;;;;;;;4978950;28;20223;-87
2023/01/04 12:04:54;;;;;;;3.33;1.20;;;;;;;;;;4978299;28;20183;-87
2023/01/04 12:07:59;;;;;;;1.50;1.10;;;;;;;;;;4976762;28;20538;-87
2023/01/04 12:11:04;;;;;;;1.30;1.00;;;;;;;;;;4972998;28;20231;-87
2023/01/04 12:14:18;;;;;;;1.20;0.90;;;;;;;;;;4979084;28;20179;-87
2023/01/04 12:17:47;;;;;;;1.77;0.90;;;;;;;;;;4987002;28;20203;-86
2023/01/04 12:20:52;;;;;;;1.53;0.90;;;;;;;;;;4988562;28;20218;-86
2023/01/04 12:23:56;;;;;;;0.97;0.87;;;;;;;;;;4988108;28;20199;-87
2023/01/04 12:27:01;;;;;;;1.73;0.80;;;;;;;;;;4979016;28;20195;-87
2023/01/04 12:30:08;;;;;;;1.20;0.90;;;;;;;;;;5001873;28;20178;-86
2023/01/04 12:33:28;;;;;;;2.10;1.03;;;;;;;;;;4977413;28;20175;-87
2023/01/04 12:36:35;;;;;;;2.63;1.10;;;;;;;;;;4989496;28;20211;-87
2023/01/04 12:39:46;;;;;;;1.20;1.03;;;;;;;;;;4966396;28;20198;-87
2023/01/04 12:43:24;;;;;;;1.30;0.93;;;;;;;;;;4989480;28;20183;-87
2023/01/04 12:50:01;;;;;;;4.53;2.30;;;;;;;;;;4978357;28;20187;-87
2023/01/04 12:53:27;;;;;;;5.67;1.10;;;;;;;;;;4977370;28;20187;-87
2023/01/04 12:57:10;;;;;;;1.20;1.10;;;;;;;;;;4988376;28;20210;-87
2023/01/04 13:00:15;;;;;;;1.00;0.90;;;;;;;;;;4967288;28;20218;-86
2023/01/04 13:03:23;;;;;;;2.07;1.10;;;;;;;;;;4977172;28;20175;-87
2023/01/04 13:06:32;;;;;;;1.37;1.00;;;;;;;;;;4966075;28;20175;-86
2023/01/04 13:09:42;;;;;;;1.43;1.10;;;;;;;;;;4976273;28;20202;-87
2023/01/04 13:13:01;;;;;;;1.60;1.50;;;;;;;;;;4998350;28;20203;-87
2023/01/04 13:16:34;;;;;;;0.90;0.80;;;;;;;;;;4985355;28;20202;-86
2023/01/04 13:19:38;;;;;;;1.43;1.00;;;;;;;;;;4997164;28;20171;-86
2023/01/04 13:22:50;;;;;;;1.47;0.93;;;;;;;;;;4997323;28;20179;-86
2023/01/04 13:25:55;;;;;;;3.93;3.50;;;;;;;;;;4988234;28;20195;-86
2023/01/04 13:29:14;;;;;;;1.73;1.43;;;;;;;;;;4987667;28;20175;-86
2023/01/04 13:32:32;;;;;;;1.57;0.80;;;;;;;;;;4985992;28;20183;-87
2023/01/04 13:35:37;;;;;;;1.20;1.10;;;;;;;;;;4997141;28;20195;-86
2023/01/04 13:38:41;;;;;;;0.97;0.83;;;;;;;;;;4986054;28;20174;-87
2023/01/04 13:41:45;;;;;;;0.97;0.80;;;;;;;;;;4985248;28;20213;-86
2023/01/04 13:44:59;;;;;;;1.10;0.90;;;;;;;;;;4985848;28;20198;-87
2023/01/04 13:48:09;;;;;;;1.00;0.90;;;;;;;;;;4997357;28;20186;-87
2023/01/04 13:51:29;;;;;;;0.93;0.80;;;;;;;;;;4985220;28;20230;-87
2023/01/04 13:54:34;;;;;;;1.40;1.00;;;;;;;;;;4967499;28;20183;-89
2023/01/04 13:57:38;;;;;;;1.10;1.00;;;;;;;;;;4964483;28;20221;-89
2023/01/04 14:00:51;;;;;;;1.77;1.00;;;;;;;;;;4975904;28;20214;-89
2023/01/04 14:04:06;;;;;;;1.23;1.03;;;;;;;;;;4965011;28;20179;-90
2023/01/04 14:07:11;;;;;;;1.93;0.90;;;;;;;;;;4975347;28;20187;-88
2023/01/04 14:10:17;;;;;;;3.50;1.20;;;;;;;;;;4986239;28;20214;-88
2023/01/04 14:13:21;;;;;;;2.57;0.93;;;;;;;;;;4964417;28;20175;-88
2023/01/04 14:16:25;;;;;;;1.00;0.90;;;;;;;;;;4976374;28;20210;-87
2023/01/04 14:19:44;;;;;;;2.30;1.10;;;;;;;;;;4976115;28;20175;-88
2023/01/04 14:22:55;;;;;;;1.30;0.90;;;;;;;;;;4964960;28;20635;-88
2023/01/04 14:25:59;;;;;;;2.80;1.00;;;;;;;;;;4977046;28;20187;-88
2023/01/04 14:29:30;;;;;;;2.80;2.40;;;;;;;;;;4964942;28;20179;-89
2023/01/04 14:32:34;;;;;;;4.70;4.30;;;;;;;;;;4964945;28;20539;-90
2023/01/04 14:35:38;;;;;;;40.17;29.87;;;;;;;;;;4965425;28;20183;-91
2023/01/04 14:38:54;;;;;;;115.43;82.23;;;;;;;;;;4953624;28;20548;-91
2023/01/04 14:42:00;;;;;;;42.63;38.57;;;;;;;;;;4964720;28;20229;-89
2023/01/04 14:45:11;;;;;;;4.60;4.20;;;;;;;;;;4965283;28;20179;-91
2023/01/04 14:48:16;;;;;;;23.07;17.57;;;;;;;;;;4965218;28;20542;-91
2023/01/04 14:51:32;;;;;;;11.70;9.53;;;;;;;;;;4975575;28;20222;-91
2023/01/04 14:54:38;;;;;;;16.33;14.47;;;;;;;;;;4964501;28;20186;-91
2023/01/04 14:57:44;;;;;;;14.00;12.00;;;;;;;;;;4986962;28;20687;-92
2023/01/04 15:00:48;;;;;;;30.33;27.03;;;;;;;;;;4985668;28;20218;-91
2023/01/04 15:03:53;;;;;;;4.30;3.50;;;;;;;;;;4964019;28;20183;-91
2023/01/04 15:06:58;;;;;;;2.20;1.70;;;;;;;;;;4964348;28;20618;-91
2023/01/04 15:10:04;;;;;;;1.73;1.30;;;;;;;;;;4986134;28;20178;-91
2023/01/04 15:13:08;;;;;;;2.03;1.10;;;;;;;;;;4964070;28;20183;-91
2023/01/04 15:16:16;;;;;;;1.37;1.27;;;;;;;;;;4964417;28;20179;-91
2023/01/04 15:19:20;;;;;;;1.57;0.90;;;;;;;;;;4964252;28;20183;-91
2023/01/04 15:22:25;;;;;;;1.20;1.00;;;;;;;;;;4963443;28;20187;-91
2023/01/04 15:25:30;;;;;;;1.60;1.10;;;;;;;;;;4963784;28;20175;-91
2023/01/04 15:28:35;;;;;;;1.40;1.20;;;;;;;;;;4963930;28;20179;-91
2023/01/04 15:31:42;;;;;;;8.57;6.23;;;;;;;;;;4975265;28;20215;-93
2023/01/04 15:34:52;;;;;;;2.10;1.90;;;;;;;;;;4953901;28;20186;-91
2023/01/04 15:37:57;;;;;;;2.40;1.70;;;;;;;;;;4963707;28;20250;-91
2023/01/04 15:42:57;;;;;;;5.87;4.93;;;;;;;;;;4952436;28;20218;-90
2023/01/04 15:44:34;;;;;;;1.70;1.60;;;;;;;;;;4974044;28;20203;-88
2023/01/04 15:47:38;;;;;;;2.00;1.90;;;;;;;;;;4963388;28;20174;-88
2023/01/04 15:50:43;;;;;;;2.23;1.80;;;;;;;;;;4964441;28;20210;-89
2023/01/04 15:53:51;;;;;;;2.13;1.97;;;;;;;;;;4966343;28;20179;-89
2023/01/04 15:56:56;;;;;;;1.17;1.07;;;;;;;;;;4977759;28;20547;-89
2023/01/04 16:00:00;;;;;;;1.87;1.20;;;;;;;;;;4966383;28;20191;-88
2023/01/04 16:03:05;;;;;;;1.60;1.10;;;;;;;;;;4966703;28;20538;-88
2023/01/04 16:06:12;;;;;;;1.30;0.97;;;;;;;;;;4977528;28;20179;-88
2023/01/04 16:09:16;;;;;;;1.77;0.93;;;;;;;;;;4966550;28;20179;-88
2023/01/04 16:15:43;;;;;;;1.60;1.10;;;;;;;;;;4966141;28;20183;-88
2023/01/04 16:18:49;;;;;;;1.50;1.10;;;;;;;;;;4966133;28;20210;-89
2023/01/04 16:21:54;;;;;;;2.30;2.10;;;;;;;;;;4966140;28;20218;-89
2023/01/04 16:24:58;;;;;;;2.90;2.40;;;;;;;;;;4965969;28;20178;-88
2023/01/04 16:28:02;;;;;;;2.77;2.33;;;;;;;;;;4988502;28;20190;-88
2023/01/04 16:31:08;;;;;;;7.97;7.17;;;;;;;;;;4977337;28;20223;-88
2023/01/04 16:34:13;;;;;;;4.57;2.83;;;;;;;;;;4976966;28;20206;-88
2023/01/04 16:37:17;;;;;;;1.97;1.50;;;;;;;;;;4976827;28;20234;-89
2023/01/04 16:40:23;;;;;;;1.43;1.10;;;;;;;;;;4965850;28;20218;-89
2023/01/04 16:43:28;;;;;;;12.63;7.23;;;;;;;;;;4987979;28;20183;-89
2023/01/04 16:46:36;;;;;;;13.77;7.73;;;;;;;;;;4977660;28;20183;-89
2023/01/04 16:49:40;;;;;;;10.93;6.30;;;;;;;;;;4988269;28;20183;-89
2023/01/04 16:52:45;;;;;;;12.73;6.17;;;;;;;;;;4965867;28;20179;-89
2023/01/04 16:55:52;;;;;;;4.80;3.60;;;;;;;;;;4989518;28;20179;-88
2023/01/04 16:58:56;;;;;;;2.33;1.77;;;;;;;;;;4989640;28;20662;-88
2023/01/04 17:02:00;;;;;;;2.90;1.10;;;;;;;;;;4975968;28;20219;-89
2023/01/04 17:05:04;;;;;;;2.80;1.63;;;;;;;;;;4977037;28;20190;-88
2023/01/04 17:08:08;;;;;;;3.17;2.27;;;;;;;;;;4977971;28;20194;-88
2023/01/04 17:11:17;;;;;;;1.77;1.40;;;;;;;;;;4967276;28;20226;-88
2023/01/04 17:14:27;;;;;;;1.67;1.43;;;;;;;;;;4976737;28;20199;-89
2023/01/04 17:17:31;;;;;;;8.80;5.53;;;;;;;;;;4954394;28;20682;-89
2023/01/04 17:20:36;;;;;;;14.23;9.33;;;;;;;;;;4965525;28;20222;-90
2023/01/04 17:23:43;;;;;;;26.50;15.17;;;;;;;;;;4965566;28;20179;-89
2023/01/04 17:26:47;;;;;;;38.37;20.00;;;;;;;;;;4965479;28;20212;-89
2023/01/04 17:29:51;;;;;;;7.80;5.63;;;;;;;;;;4965833;28;20178;-88
2023/01/04 17:32:56;;;;;;;3.20;1.93;;;;;;;;;;4978746;28;20186;-89
2023/01/04 17:36:05;;;;;;;1.83;1.70;;;;;;;;;;4967271;28;20198;-89
2023/01/04 17:39:09;;;;;;;1.90;1.23;;;;;;;;;;4967822;28;20207;-88
2023/01/04 17:42:13;;;;;;;1.93;1.50;;;;;;;;;;4989850;28;20178;-88
2023/01/04 17:45:18;;;;;;;5.63;3.47;;;;;;;;;;4966981;28;20187;-90
2023/01/04 17:48:21;;;;;;;9.80;5.70;;;;;;;;;;4978277;28;20175;-90
2023/01/04 17:51:26;;;;;;;11.53;7.57;;;;;;;;;;4972663;28;20214;-89
2023/01/04 17:54:30;;;;;;;16.23;9.40;;;;;;;;;;4962297;28;20198;-89
2023/01/04 17:57:34;;;;;;;9.37;3.50;;;;;;;;;;4962842;28;20211;-89
2023/01/04 18:00:39;;;;;;;15.33;7.07;;;;;;;;;;4985026;28;20218;-89
2023/01/04 18:03:45;;;;;;;3.00;1.80;;;;;;;;;;4984385;28;20194;-89
2023/01/04 18:06:50;;;;;;;2.10;1.33;;;;;;;;;;4972234;28;20186;-89
2023/01/04 18:09:54;;;;;;;1.43;1.30;;;;;;;;;;4960773;28;20175;-90
2023/01/04 18:12:59;;;;;;;2.33;1.80;;;;;;;;;;4993731;28;20186;-90
2023/01/04 18:16:06;;;;;;;3.20;2.80;;;;;;;;;;4959693;28;20182;-90
2023/01/04 18:19:10;;;;;;;3.40;2.73;;;;;;;;;;4981873;28;20219;-90
2023/01/04 18:22:14;;;;;;;5.97;3.90;;;;;;;;;;4969226;28;20182;-89
2023/01/04 18:25:19;;;;;;;5.80;4.33;;;;;;;;;;4979247;28;20179;-90
2023/01/04 18:28:23;;;;;;;8.40;4.90;;;;;;;;;;4979211;28;20183;-89
2023/01/04 18:31:28;;;;;;;3.87;2.83;;;;;;;;;;4956548;28;20713;-90
2023/01/04 18:34:32;;;;;;;3.07;1.90;;;;;;;;;;4955497;28;20178;-90
2023/01/04 18:37:36;;;;;;;3.20;1.40;;;;;;;;;;4976865;28;20179;-90
2023/01/04 18:40:40;;;;;;;1.10;0.90;;;;;;;;;;4965482;28;20222;-90
2023/01/04 18:43:48;;;;;;;13.07;8.63;;;;;;;;;;4965485;28;20183;-90
2023/01/04 18:46:52;;;;;;;6.67;4.10;;;;;;;;;;4954299;28;20199;-90
2023/01/04 18:49:56;;;;;;;5.67;3.43;;;;;;;;;;4976065;28;20182;-92
2023/01/04 18:53:00;;;;;;;9.57;5.50;;;;;;;;;;4965273;28;20515;-91
2023/01/04 18:56:05;;;;;;;8.67;5.30;;;;;;;;;;4965031;28;20183;-92
2023/01/04 18:59:09;;;;;;;9.37;5.00;;;;;;;;;;4964432;28;20203;-91
2023/01/04 19:02:16;;;;;;;3.17;1.97;;;;;;;;;;4976248;28;20175;-90
2023/01/04 19:05:21;;;;;;;3.50;1.67;;;;;;;;;;4953469;28;20179;-91
2023/01/04 19:08:26;;;;;;;3.47;1.37;;;;;;;;;;4964877;28;20655;-91
2023/01/04 19:11:30;;;;;;;1.80;1.30;;;;;;;;;;4953576;28;20231;-91
2023/01/04 19:14:34;;;;;;;1.53;1.20;;;;;;;;;;4976832;28;20175;-90
2023/01/04 19:17:38;;;;;;;1.80;1.30;;;;;;;;;;4977660;28;20175;-90
2023/01/04 19:20:42;;;;;;;2.63;1.30;;;;;;;;;;4964694;28;20214;-90
2023/01/04 19:23:47;;;;;;;1.97;1.23;;;;;;;;;;4964768;28;20183;-90